Time;durP1;ratioP1;P1;durP2;ratioP2;P2;SDS_P1;SDS_P2;PMS_P1;PMS_P2;Temp;Humidity;BMP_temperature;BMP_pressure;BME280_temperature;BME280_humidity;BME280_pressure;Samples;Min_cycle;Max_cycle;Signal;HPM_P1;HPM_P2
2021/05/13 00:00:23;;;;;;;10.70;3.63;;;15.10;99.90;;;;;;5031843;28;20453;-81
2021/05/13 00:02:48;;;;;;;5.40;3.42;;;15.10;99.90;;;;;;5031162;28;20041;-80
2021/05/13 00:05:14;;;;;;;8.25;3.60;;;15.10;99.90;;;;;;5032795;28;20156;-82
2021/05/13 00:07:41;;;;;;;8.90;3.92;;;15.10;99.90;;;;;;5034682;28;20036;-83
2021/05/13 00:10:09;;;;;;;6.97;4.05;;;15.10;99.90;;;;;;5034418;28;20030;-80
2021/05/13 00:12:42;;;;;;;8.15;4.38;;;15.10;99.90;;;;;;5034554;28;20030;-82
2021/05/13 00:15:17;;;;;;;7.55;3.20;;;15.10;99.90;;;;;;5035090;28;20034;-82
2021/05/13 00:17:43;;;;;;;6.97;3.40;;;15.20;99.90;;;;;;5036637;28;20312;-84
2021/05/13 00:20:12;;;;;;;6.38;3.67;;;15.30;99.90;;;;;;5035074;28;20030;-81
2021/05/13 00:22:38;;;;;;;6.32;3.55;;;15.30;99.90;;;;;;5026911;28;20033;-84
2021/05/13 00:25:05;;;;;;;9.82;3.65;;;15.40;99.90;;;;;;5028436;28;20034;-84
2021/05/13 00:27:31;;;;;;;12.57;3.38;;;15.40;99.90;;;;;;5027897;28;20425;-84
2021/05/13 00:29:57;;;;;;;6.93;3.55;;;15.50;99.90;;;;;;5034752;28;20033;-76
2021/05/13 00:32:23;;;;;;;7.40;4.10;;;15.50;99.90;;;;;;5022210;28;20494;-74
2021/05/13 00:34:48;;;;;;;13.30;3.55;;;15.50;99.90;;;;;;5028515;28;20459;-82
2021/05/13 00:37:14;;;;;;;10.68;3.80;;;15.50;99.90;;;;;;5027347;28;20030;-75
2021/05/13 00:39:40;;;;;;;4.60;3.45;;;15.40;99.90;;;;;;5034441;28;20359;-84
2021/05/13 00:42:06;;;;;;;6.90;3.13;;;15.40;99.90;;;;;;5034463;28;20057;-72
2021/05/13 00:44:36;;;;;;;5.43;3.55;;;15.40;99.90;;;;;;5034694;28;20518;-76
2021/05/13 00:47:03;;;;;;;5.43;3.67;;;15.40;99.90;;;;;;5039093;28;20100;-84
2021/05/13 00:49:29;;;;;;;7.60;3.53;;;15.40;99.90;;;;;;5043753;28;20034;-83
2021/05/13 00:51:54;;;;;;;16.15;3.60;;;15.40;99.90;;;;;;5029019;28;20033;-84
2021/05/13 00:54:20;;;;;;;10.35;4.13;;;15.40;99.90;;;;;;5024447;28;20476;-79
2021/05/13 00:56:47;;;;;;;5.07;3.17;;;15.50;99.90;;;;;;5031196;28;20045;-84
2021/05/13 00:59:13;;;;;;;9.65;3.72;;;15.50;99.90;;;;;;5016633;28;20154;-84
2021/05/13 01:04:12;;;;;;;14.35;3.22;;;15.50;99.90;;;;;;5020577;28;20539;-80
2021/05/13 01:06:37;;;;;;;5.15;3.75;;;15.50;99.90;;;;;;5034252;28;20470;-84
2021/05/13 01:09:08;;;;;;;8.40;3.38;;;15.50;99.90;;;;;;5033819;28;20040;-77
2021/05/13 01:11:40;;;;;;;8.27;3.70;;;15.50;99.90;;;;;;5025450;28;20034;-80
2021/05/13 01:14:50;;;;;;;6.65;3.28;;;15.50;99.90;;;;;;5022414;28;20037;-80
2021/05/13 01:19:29;;;;;;;5.85;2.60;;;15.60;99.90;;;;;;5034051;28;20042;-84
2021/05/13 01:21:55;;;;;;;8.55;3.20;;;15.60;99.90;;;;;;5033818;28;20405;-77
2021/05/13 01:24:22;;;;;;;7.85;3.60;;;15.60;99.90;;;;;;5033903;28;20099;-82
2021/05/13 01:26:49;;;;;;;6.93;3.05;;;15.60;99.90;;;;;;5034131;28;20390;-81
2021/05/13 01:29:19;;;;;;;8.10;3.40;;;15.60;99.90;;;;;;5033353;28;20449;-72
2021/05/13 01:31:46;;;;;;;11.35;3.53;;;15.60;99.90;;;;;;5021448;28;20065;-70
2021/05/13 01:34:12;;;;;;;8.45;3.60;;;15.60;99.90;;;;;;5016702;28;20062;-70
2021/05/13 01:36:38;;;;;;;9.27;3.13;;;15.60;99.90;;;;;;5028249;28;20061;-70
2021/05/13 01:39:06;;;;;;;10.85;3.25;;;15.60;99.90;;;;;;5024676;28;20041;-71
2021/05/13 01:41:32;;;;;;;7.13;3.45;;;15.60;99.90;;;;;;5033170;28;20037;-72
2021/05/13 01:43:58;;;;;;;6.50;3.17;;;15.60;99.90;;;;;;5033290;28;20116;-70
2021/05/13 01:46:24;;;;;;;12.30;3.72;;;15.60;99.90;;;;;;5032822;28;20478;-70
2021/05/13 01:48:49;;;;;;;9.05;3.70;;;15.60;99.90;;;;;;5032785;28;20113;-70
2021/05/13 01:51:15;;;;;;;13.10;3.67;;;15.70;99.90;;;;;;5033107;28;20029;-71
2021/05/13 01:53:42;;;;;;;8.30;4.90;;;15.70;99.90;;;;;;5027310;28;20037;-68
2021/05/13 01:56:09;;;;;;;15.32;6.13;;;15.70;99.90;;;;;;5028782;28;20029;-70
2021/05/13 01:58:35;;;;;;;12.65;5.68;;;15.70;99.90;;;;;;5032753;28;20064;-70
2021/05/13 02:01:01;;;;;;;9.75;5.38;;;15.70;99.90;;;;;;5022808;28;20048;-75
2021/05/13 02:03:27;;;;;;;13.07;6.75;;;15.70;99.90;;;;;;5018514;28;20101;-72
2021/05/13 02:05:53;;;;;;;13.30;4.82;;;15.60;99.90;;;;;;5031550;28;20029;-73
2021/05/13 02:08:19;;;;;;;10.70;5.15;;;15.70;99.90;;;;;;5033137;28;20030;-70
2021/05/13 02:10:45;;;;;;;7.38;3.60;;;15.70;99.90;;;;;;5023609;28;20042;-69
2021/05/13 02:13:11;;;;;;;8.63;3.58;;;15.60;99.90;;;;;;5014572;28;20041;-69
2021/05/13 02:15:36;;;;;;;7.60;3.55;;;15.60;99.90;;;;;;5020842;28;20038;-74
2021/05/13 02:18:03;;;;;;;8.85;3.88;;;15.50;99.90;;;;;;5016092;28;20041;-72
2021/05/13 02:20:29;;;;;;;8.70;4.35;;;15.50;99.90;;;;;;5031579;28;20065;-76
2021/05/13 02:22:55;;;;;;;9.38;4.50;;;15.50;99.90;;;;;;5032072;28;20073;-73
2021/05/13 02:25:21;;;;;;;11.88;4.50;;;15.50;99.90;;;;;;5032241;28;20063;-69
2021/05/13 02:27:47;;;;;;;12.13;4.82;;;15.40;99.90;;;;;;5031975;28;20116;-70
2021/05/13 02:30:14;;;;;;;10.25;5.15;;;15.40;99.90;;;;;;5032053;28;20116;-73
2021/05/13 02:32:40;;;;;;;7.63;4.38;;;15.30;99.90;;;;;;5032049;28;20037;-72
2021/05/13 02:35:08;;;;;;;13.18;5.43;;;15.20;99.90;;;;;;5021285;28;20048;-72
2021/05/13 02:37:34;;;;;;;13.95;4.90;;;15.10;99.90;;;;;;5016660;28;20057;-70
2021/05/13 02:40:00;;;;;;;12.07;4.63;;;15.20;99.90;;;;;;5026474;28;20026;-74
2021/05/13 02:42:25;;;;;;;10.02;4.82;;;15.10;99.90;;;;;;5021339;28;20084;-78
2021/05/13 02:44:51;;;;;;;13.75;4.90;;;15.10;99.90;;;;;;5031764;28;20044;-72
2021/05/13 02:47:17;;;;;;;11.18;4.57;;;15.10;99.90;;;;;;5032506;28;20030;-70
2021/05/13 02:49:42;;;;;;;9.27;4.32;;;15.10;99.90;;;;;;5032213;28;20148;-74
2021/05/13 02:52:08;;;;;;;8.15;4.60;;;15.10;99.90;;;;;;5032097;28;20063;-73
2021/05/13 02:54:34;;;;;;;10.23;4.95;;;15.10;99.90;;;;;;5023163;28;20038;-78
2021/05/13 02:57:00;;;;;;;6.05;4.15;;;15.10;99.90;;;;;;5022948;28;20054;-72
2021/05/13 02:59:40;;;;;;;12.50;4.68;;;15.10;99.90;;;;;;5023120;28;20368;-73
2021/05/13 03:02:06;;;;;;;8.82;4.22;;;15.10;99.90;;;;;;5031255;28;20389;-73
2021/05/13 03:04:31;;;;;;;9.65;3.80;;;15.10;99.90;;;;;;5032070;28;20030;-74
2021/05/13 03:06:57;;;;;;;9.32;4.10;;;15.10;99.90;;;;;;5013226;28;20034;-78
2021/05/13 03:09:23;;;;;;;11.60;3.92;;;15.10;99.90;;;;;;5028746;28;20029;-75
2021/05/13 03:11:48;;;;;;;15.52;4.00;;;15.10;99.90;;;;;;5031455;28;20030;-74
2021/05/13 03:14:15;;;;;;;11.50;3.90;;;15.10;99.90;;;;;;5025753;28;20025;-77
2021/05/13 03:16:40;;;;;;;7.45;3.90;;;15.00;99.90;;;;;;5031446;28;20037;-69
2021/05/13 03:19:11;;;;;;;9.32;4.38;;;15.00;99.90;;;;;;5016294;28;20108;-70
2021/05/13 03:21:41;;;;;;;10.65;4.68;;;15.00;99.90;;;;;;5022574;28;20042;-78
2021/05/13 03:29:04;;;;;;;9.68;5.00;;;15.00;99.90;;;;;;5032059;28;20036;-85
2021/05/13 03:31:30;;;;;;;12.52;5.47;;;15.00;99.90;;;;;;5031552;28;20030;-84
2021/05/13 03:33:56;;;;;;;24.63;4.90;;;15.00;99.90;;;;;;5028028;28;20105;-84
2021/05/13 03:36:22;;;;;;;9.98;5.00;;;15.00;99.90;;;;;;5015555;28;20405;-83
2021/05/13 03:38:47;;;;;;;8.02;4.85;;;14.90;99.90;;;;;;5025171;28;20033;-85
2021/05/13 03:41:13;;;;;;;12.05;4.53;;;15.00;99.90;;;;;;5025470;28;20034;-84
2021/05/13 03:43:39;;;;;;;6.15;3.88;;;14.90;99.90;;;;;;5029937;28;20030;-78
2021/05/13 03:46:04;;;;;;;11.95;4.35;;;14.90;99.90;;;;;;5021191;28;20096;-72
2021/05/13 03:48:30;;;;;;;8.82;3.58;;;14.80;99.90;;;;;;5020675;28;20112;-82
2021/05/13 03:50:56;;;;;;;4.90;3.35;;;14.80;99.90;;;;;;5026298;28;20033;-84
2021/05/13 03:53:22;;;;;;;18.15;4.38;;;14.80;99.90;;;;;;5016471;28;20026;-79
2021/05/13 03:55:51;;;;;;;7.68;3.97;;;14.80;99.90;;;;;;5027633;28;20034;-84
2021/05/13 03:58:19;;;;;;;11.88;4.35;;;14.80;99.90;;;;;;5020701;28;20046;-85
2021/05/13 04:01:00;;;;;;;4.75;3.17;;;14.80;99.90;;;;;;5033787;28;20022;-84
2021/05/13 04:03:25;;;;;;;11.48;3.65;;;14.80;99.90;;;;;;5035318;28;20107;-81
2021/05/13 04:05:51;;;;;;;7.25;4.30;;;14.80;99.90;;;;;;5035091;28;20022;-85
2021/05/13 04:08:17;;;;;;;6.50;3.72;;;14.80;99.90;;;;;;5035317;28;20037;-85
2021/05/13 04:10:43;;;;;;;5.75;3.97;;;14.70;99.90;;;;;;5018275;28;20041;-83
2021/05/13 04:13:13;;;;;;;8.48;4.10;;;14.80;99.90;;;;;;5027463;28;20481;-85
2021/05/13 04:15:42;;;;;;;7.35;4.00;;;14.80;99.90;;;;;;5030022;28;20037;-80
2021/05/13 04:18:08;;;;;;;5.38;4.00;;;14.80;99.90;;;;;;5025288;28;20050;-82
2021/05/13 04:20:35;;;;;;;9.45;4.28;;;14.80;99.90;;;;;;5033365;28;20051;-85
2021/05/13 04:23:01;;;;;;;5.75;4.22;;;14.80;99.90;;;;;;5033704;28;20032;-72
2021/05/13 04:25:26;;;;;;;9.27;4.80;;;14.90;99.90;;;;;;5020134;28;20033;-85
2021/05/13 04:27:52;;;;;;;8.60;4.18;;;14.90;99.90;;;;;;5026893;28;20123;-83
2021/05/13 04:30:18;;;;;;;6.35;4.03;;;14.90;99.90;;;;;;5020640;28;20160;-85
2021/05/13 04:32:44;;;;;;;7.15;3.70;;;14.90;99.90;;;;;;5020575;28;20049;-85
2021/05/13 04:35:12;;;;;;;6.03;3.42;;;14.90;99.90;;;;;;5022997;28;20045;-86
2021/05/13 04:37:37;;;;;;;7.78;3.90;;;14.80;99.90;;;;;;5016116;28;20053;-86
2021/05/13 04:40:04;;;;;;;10.40;5.72;;;14.80;99.90;;;;;;5022621;28;20022;-85
2021/05/13 04:42:30;;;;;;;5.43;4.20;;;14.80;99.90;;;;;;5017455;28;20430;-78
2021/05/13 04:44:57;;;;;;;12.77;4.57;;;14.90;99.90;;;;;;5016728;28;20044;-71
2021/05/13 04:47:30;;;;;;;8.18;4.90;;;14.90;99.90;;;;;;5016744;28;20554;-79
2021/05/13 04:49:56;;;;;;;9.68;4.68;;;15.00;99.90;;;;;;5020810;28;20505;-80
2021/05/13 04:52:24;;;;;;;9.88;4.88;;;15.00;99.90;;;;;;5019585;28;20065;-79
2021/05/13 04:54:52;;;;;;;7.63;4.18;;;15.00;99.90;;;;;;5018090;28;20165;-84
2021/05/13 04:57:22;;;;;;;7.10;4.10;;;15.10;99.90;;;;;;5018393;28;20042;-73
2021/05/13 04:59:48;;;;;;;10.02;4.82;;;15.10;99.90;;;;;;5031964;28;20026;-74
2021/05/13 05:02:14;;;;;;;9.93;4.68;;;15.10;99.90;;;;;;5028898;28;20037;-84
2021/05/13 05:04:40;;;;;;;9.82;4.85;;;15.10;99.90;;;;;;5016169;28;20057;-83
2021/05/13 05:07:06;;;;;;;14.43;4.00;;;15.10;99.90;;;;;;5016726;28;20029;-85
2021/05/13 05:09:32;;;;;;;10.93;4.28;;;15.10;99.90;;;;;;5021321;28;20059;-85
2021/05/13 05:11:58;;;;;;;8.73;4.72;;;15.10;99.90;;;;;;5016335;28;20026;-86
2021/05/13 05:14:24;;;;;;;5.88;4.32;;;15.10;99.90;;;;;;5028932;28;20044;-77
2021/05/13 05:16:49;;;;;;;6.20;3.28;;;15.00;99.90;;;;;;5033144;28;20432;-69
2021/05/13 05:19:15;;;;;;;5.32;2.80;;;15.00;99.90;;;;;;5032999;28;20136;-84
2021/05/13 05:21:41;;;;;;;5.00;2.25;;;15.00;99.90;;;;;;5030054;28;20054;-80
2021/05/13 05:24:07;;;;;;;3.67;2.28;;;14.90;99.90;;;;;;5022343;28;20521;-85
2021/05/13 05:26:34;;;;;;;4.72;2.40;;;14.90;99.90;;;;;;5028459;28;20033;-85
2021/05/13 05:29:00;;;;;;;6.47;2.75;;;14.90;99.90;;;;;;5029335;28;20072;-81
2021/05/13 05:31:26;;;;;;;6.53;3.53;;;14.90;99.90;;;;;;5027278;28;20504;-84
2021/05/13 05:33:52;;;;;;;3.65;2.88;;;14.90;99.90;;;;;;5030569;28;20038;-85
2021/05/13 05:36:18;;;;;;;6.47;2.90;;;14.80;99.90;;;;;;5028311;28;20026;-81
2021/05/13 05:38:44;;;;;;;4.28;2.20;;;14.80;99.90;;;;;;5026576;28;20390;-85
2021/05/13 05:41:09;;;;;;;10.70;2.50;;;14.70;99.90;;;;;;5030152;28;20030;-85
2021/05/13 05:43:35;;;;;;;5.25;3.20;;;14.70;99.90;;;;;;5028735;28;20048;-75
2021/05/13 05:46:01;;;;;;;4.68;3.17;;;14.60;99.90;;;;;;5015991;28;20364;-82
2021/05/13 05:48:27;;;;;;;10.65;3.90;;;14.60;99.90;;;;;;5032278;28;20108;-86
2021/05/13 05:50:52;;;;;;;5.30;3.33;;;14.60;99.90;;;;;;5033232;28;20040;-81
2021/05/13 05:53:18;;;;;;;7.00;2.90;;;14.70;99.90;;;;;;5032587;28;20114;-84
2021/05/13 05:55:44;;;;;;;8.10;2.78;;;14.70;99.90;;;;;;5024988;28;20044;-79
2021/05/13 05:58:10;;;;;;;5.07;2.30;;;14.70;99.90;;;;;;5026707;28;20051;-85
2021/05/13 06:00:36;;;;;;;3.97;2.40;;;14.70;99.90;;;;;;5032669;28;20382;-74
2021/05/13 06:03:01;;;;;;;10.35;2.45;;;14.70;99.90;;;;;;5032554;28;20470;-87
2021/05/13 06:05:27;;;;;;;1.80;1.52;;;14.70;99.90;;;;;;5018779;28;20037;-85
2021/05/13 06:07:53;;;;;;;3.95;1.60;;;14.70;99.90;;;;;;5014136;28;20037;-85
2021/05/13 06:10:20;;;;;;;3.38;1.55;;;14.70;99.90;;;;;;5028121;28;20044;-84
2021/05/13 06:12:47;;;;;;;4.72;1.80;;;14.70;99.90;;;;;;5030118;28;20026;-78
2021/05/13 06:15:15;;;;;;;3.60;1.98;;;14.60;99.90;;;;;;5031345;28;20060;-85
2021/05/13 06:17:42;;;;;;;3.72;2.58;;;14.60;99.90;;;;;;5031606;28;20398;-84
2021/05/13 06:20:20;;;;;;;4.65;1.58;;;14.50;99.90;;;;;;5032569;28;20033;-82
2021/05/13 06:22:46;;;;;;;3.08;1.70;;;14.40;99.90;;;;;;5032375;28;20487;-80
2021/05/13 06:25:12;;;;;;;1.45;1.10;;;14.40;99.90;;;;;;5032941;28;20104;-75
2021/05/13 06:27:38;;;;;;;3.35;1.60;;;14.40;99.90;;;;;;5018617;28;20045;-83
2021/05/13 06:30:05;;;;;;;10.98;2.20;;;14.40;99.90;;;;;;5021554;28;20050;-83
2021/05/13 06:32:31;;;;;;;6.45;2.10;;;14.40;99.90;;;;;;5023987;28;20034;-84
2021/05/13 06:34:57;;;;;;;2.55;1.50;;;14.50;99.90;;;;;;5026230;28;20042;-84
2021/05/13 06:37:22;;;;;;;4.32;1.92;;;14.40;99.90;;;;;;5015905;28;20492;-81
2021/05/13 06:39:48;;;;;;;5.22;1.80;;;14.40;99.90;;;;;;5018536;28;20038;-84
2021/05/13 06:42:15;;;;;;;4.57;2.10;;;14.40;99.90;;;;;;5018067;28;20042;-75
2021/05/13 06:44:40;;;;;;;2.83;1.65;;;14.40;99.90;;;;;;5018057;28;20037;-85
2021/05/13 06:47:06;;;;;;;3.85;2.13;;;14.40;99.90;;;;;;5021471;28;20030;-73
2021/05/13 06:49:32;;;;;;;3.00;1.92;;;14.40;99.90;;;;;;5029352;28;20037;-84
2021/05/13 06:51:58;;;;;;;1.42;1.27;;;14.40;99.90;;;;;;5031972;28;20028;-84
2021/05/13 06:54:24;;;;;;;2.85;1.50;;;14.50;99.90;;;;;;5032065;28;20041;-84
2021/05/13 06:56:49;;;;;;;2.38;1.30;;;14.50;99.90;;;;;;5023901;28;20084;-79
2021/05/13 06:59:15;;;;;;;5.43;2.10;;;14.60;99.90;;;;;;5032423;28;20026;-83
2021/05/13 07:01:41;;;;;;;6.60;1.60;;;14.60;99.90;;;;;;5016739;28;20117;-83
2021/05/13 07:04:07;;;;;;;15.35;1.30;;;14.60;99.90;;;;;;5027631;28;20057;-80
2021/05/13 07:06:37;;;;;;;2.75;1.30;;;14.50;99.90;;;;;;5031586;28;20120;-82
2021/05/13 07:09:06;;;;;;;1.90;1.40;;;14.60;99.90;;;;;;5026679;28;20021;-77
2021/05/13 07:11:32;;;;;;;6.75;1.70;;;14.70;99.90;;;;;;5024963;28;20029;-77
2021/05/13 07:13:58;;;;;;;3.63;1.33;;;14.70;99.90;;;;;;5010497;28;20390;-81
2021/05/13 07:16:26;;;;;;;3.28;1.67;;;14.80;99.90;;;;;;5029041;28;20048;-80
2021/05/13 07:18:53;;;;;;;6.22;1.60;;;14.90;99.90;;;;;;5027580;28;20044;-77
2021/05/13 07:21:19;;;;;;;5.63;1.95;;;15.00;99.90;;;;;;5025054;28;20489;-82
2021/05/13 07:23:45;;;;;;;6.03;1.67;;;15.10;99.90;;;;;;5022104;28;20026;-75
2021/05/13 07:26:11;;;;;;;4.25;1.80;;;15.10;99.90;;;;;;5028379;28;20381;-80
2021/05/13 07:28:39;;;;;;;4.75;1.58;;;15.10;99.90;;;;;;5024310;28;20520;-83
2021/05/13 07:31:06;;;;;;;4.90;1.70;;;15.10;99.90;;;;;;5026584;28;20036;-83
2021/05/13 07:33:32;;;;;;;2.35;1.15;;;15.10;99.90;;;;;;5028067;28;20120;-83
2021/05/13 07:35:57;;;;;;;2.38;1.60;;;15.00;99.90;;;;;;5027671;28;20125;-77
2021/05/13 07:38:24;;;;;;;3.95;1.60;;;15.00;99.90;;;;;;5029604;28;20049;-74
2021/05/13 07:40:50;;;;;;;2.83;1.30;;;15.00;99.90;;;;;;5028056;28;20036;-83
2021/05/13 07:43:17;;;;;;;7.82;1.90;;;14.90;99.90;;;;;;5030401;28;20029;-82
2021/05/13 07:45:44;;;;;;;3.00;1.98;;;14.90;99.90;;;;;;5031081;28;20034;-82
2021/05/13 07:48:11;;;;;;;9.48;1.85;;;15.00;99.90;;;;;;5031027;28;20032;-82
2021/05/13 07:50:39;;;;;;;7.60;2.67;;;15.00;99.90;;;;;;5027147;28;20060;-83
2021/05/13 07:53:06;;;;;;;5.28;2.45;;;15.00;99.90;;;;;;5026136;28;20029;-79
2021/05/13 07:55:32;;;;;;;6.60;1.50;;;15.10;99.90;;;;;;5029279;28;20013;-82
2021/05/13 07:57:58;;;;;;;13.52;2.05;;;15.20;99.90;;;;;;5029779;28;20073;-79
2021/05/13 08:00:24;;;;;;;6.32;1.17;;;15.40;99.90;;;;;;5030489;28;20061;-82
2021/05/13 08:02:51;;;;;;;2.53;1.40;;;15.70;99.90;;;;;;5030623;28;20117;-80
2021/05/13 08:05:16;;;;;;;10.48;1.52;;;15.90;99.90;;;;;;5030491;28;20149;-80
2021/05/13 08:07:42;;;;;;;2.67;1.50;;;16.10;99.90;;;;;;5028014;28;20083;-81
2021/05/13 08:10:09;;;;;;;2.75;1.30;;;16.20;99.90;;;;;;5012353;28;20029;-79
2021/05/13 08:12:35;;;;;;;1.75;1.00;;;16.40;99.90;;;;;;5026549;28;20068;-78
2021/05/13 08:15:01;;;;;;;1.90;1.45;;;16.50;99.90;;;;;;5030435;28;20026;-77
2021/05/13 08:17:27;;;;;;;6.15;1.20;;;16.60;99.90;;;;;;5024547;28;20037;-78
2021/05/13 08:19:53;;;;;;;3.45;1.30;;;16.70;99.90;;;;;;5030155;28;20033;-78
2021/05/13 08:22:18;;;;;;;1.67;1.20;;;16.90;99.90;;;;;;5025482;28;20045;-78
2021/05/13 08:24:44;;;;;;;6.35;1.50;;;17.00;99.90;;;;;;5030002;28;20025;-77
2021/05/13 08:27:10;;;;;;;7.28;2.92;;;17.10;99.90;;;;;;5033316;28;20029;-76
2021/05/13 08:29:36;;;;;;;7.07;1.83;;;17.30;99.90;;;;;;5033964;28;20030;-72
2021/05/13 08:32:01;;;;;;;92.57;70.55;;;17.50;99.90;;;;;;5031816;28;20474;-74
2021/05/13 08:34:28;;;;;;;14.82;6.82;;;17.60;99.90;;;;;;5030241;28;20033;-78
2021/05/13 08:36:54;;;;;;;3.40;1.23;;;17.80;99.90;;;;;;5029692;28;20053;-76
2021/05/13 08:39:21;;;;;;;1.95;0.90;;;17.80;99.90;;;;;;5032318;28;20029;-75
2021/05/13 08:41:46;;;;;;;4.65;1.10;;;18.00;99.90;;;;;;5032474;28;20018;-75
2021/05/13 08:44:12;;;;;;;5.47;0.80;;;18.10;99.90;;;;;;5032498;28;20091;-78
2021/05/13 08:46:39;;;;;;;5.45;2.28;;;18.10;99.90;;;;;;5029186;28;20032;-78
2021/05/13 08:49:06;;;;;;;4.97;2.05;;;18.20;99.90;;;;;;5029499;28;20034;-77
2021/05/13 08:51:37;;;;;;;3.92;1.10;;;18.30;99.90;;;;;;5015003;28;20034;-74
2021/05/13 08:54:04;;;;;;;2.40;0.77;;;18.40;99.90;;;;;;5030317;28;20030;-73
2021/05/13 08:56:30;;;;;;;6.68;1.00;;;18.50;99.90;;;;;;5033125;28;20033;-76
2021/05/13 08:59:03;;;;;;;2.72;0.93;;;18.50;99.90;;;;;;5032175;28;20045;-76
2021/05/13 09:01:30;;;;;;;3.25;1.05;;;18.50;99.90;;;;;;5030677;28;20113;-78
2021/05/13 09:03:58;;;;;;;4.68;1.23;;;18.60;99.90;;;;;;5033533;28;20032;-75
2021/05/13 09:06:36;;;;;;;5.75;1.50;;;18.50;99.90;;;;;;5033859;28;20041;-75
2021/05/13 09:09:19;;;;;;;2.85;1.15;;;18.50;99.90;;;;;;5031261;28;20034;-78
2021/05/13 09:11:56;;;;;;;2.03;0.93;;;18.50;99.90;;;;;;5032125;28;20038;-79
2021/05/13 09:14:23;;;;;;;3.72;1.23;;;18.50;99.90;;;;;;5025232;28;20521;-79
2021/05/13 09:16:49;;;;;;;5.53;1.45;;;18.50;99.90;;;;;;5030932;28;20389;-78
2021/05/13 09:19:26;;;;;;;5.68;1.85;;;18.50;99.90;;;;;;5033036;28;20045;-71
2021/05/13 09:22:07;;;;;;;6.85;1.40;;;18.50;99.90;;;;;;5027738;28;20095;-78
2021/05/13 09:24:52;;;;;;;1.55;1.30;;;18.50;99.90;;;;;;5023484;28;20659;-76
2021/05/13 09:27:25;;;;;;;3.20;1.58;;;18.50;99.90;;;;;;5024450;28;20034;-77
2021/05/13 09:30:29;;;;;;;5.38;1.33;;;18.60;99.90;;;;;;5081597;22;20477;-77
2021/05/13 09:34:01;;;;;;;3.67;1.15;;;18.60;99.90;;;;;;5011075;28;20022;-77
2021/05/13 09:40:11;;;;;;;1.95;1.05;;;18.70;99.90;;;;;;4928346;29;20396;-77
2021/05/13 09:50:52;;;;;;;;;;;;;;;;;;;;;
2021/05/13 09:54:18;;;;;;;;;;;;;;;;;;;;;
2021/05/13 10:15:15;;;;;;;;;;;;;;;;;;;;;
2021/05/13 10:28:37;;;;;;;8.68;1.60;;;20.40;99.90;;;;;;4859307;29;20042;-80
2021/05/13 10:31:47;;;;;;;;;;;;;;;;;;;;;
2021/05/13 10:38:19;;;;;;;5.72;1.63;;;20.80;99.90;;;;;;4973498;28;20093;-78
2021/05/13 10:51:36;;;;;;;;;;;;;;;;;;;;;
2021/05/13 11:11:42;;;;;;;;;;;;;;;;;;;;;
2021/05/13 11:14:45;;;;;;;3.90;1.23;;;20.40;99.90;;;;;;4892918;29;20046;-80
2021/05/13 11:17:51;;;;;;;4.50;1.10;;;20.60;99.90;;;;;;4892526;29;20135;-81
2021/05/13 11:21:01;;;;;;;4.65;1.33;;;20.80;99.90;;;;;;4894345;29;20036;-79
2021/05/13 11:30:28;;;;;;;8.75;1.65;;;21.00;99.90;;;;;;4896255;29;20052;-81
2021/05/13 11:43:50;;;;;;;6.82;1.55;;;21.30;99.90;;;;;;4934069;29;20129;-80
2021/05/13 11:53:35;;;;;;;12.10;1.97;;;21.60;99.90;;;;;;4893600;29;20854;-78
2021/05/13 12:06:54;;;;;;;12.75;2.00;;;21.90;99.90;;;;;;4877061;29;20035;-80
2021/05/13 12:10:27;;;;;;;;;;;;;;;;;;;;;
2021/05/13 12:17:07;;;;;;;8.35;1.50;;;22.00;99.90;;;;;;4768812;30;20069;-80
2021/05/13 13:19:32;;;;;;;9.20;2.00;;;20.40;99.90;;;;;;5012868;28;20116;-77
2021/05/13 13:22:02;;;;;;;9.88;2.03;;;20.30;99.90;;;;;;4972619;28;20033;-76
2021/05/13 13:49:10;;;;;;;10.60;2.58;;;18.30;99.90;;;;;;4849056;29;20102;-79
2021/05/13 13:51:36;;;;;;;23.77;3.50;;;18.20;99.90;;;;;;4849605;29;20559;-79
2021/05/13 13:54:02;;;;;;;20.80;3.72;;;18.00;99.90;;;;;;4876456;29;20077;-75
2021/05/13 13:56:31;;;;;;;19.20;3.10;;;17.80;99.90;;;;;;4902872;29;20035;-75
2021/05/13 13:59:03;;;;;;;20.52;3.85;;;17.70;99.90;;;;;;4931019;29;20040;-80
2021/05/13 14:01:31;;;;;;;;;;;17.60;99.90;;;;;;4949970;28;20040;-75
2021/05/13 14:03:58;;;;;;;8.52;3.38;;;17.50;99.90;;;;;;5010409;28;20796;-75
2021/05/13 14:06:26;;;;;;;9.88;3.47;;;17.40;99.90;;;;;;5011486;28;20560;-75
2021/05/13 14:08:52;;;;;;;18.73;3.95;;;17.40;99.90;;;;;;5011686;28;20043;-76
2021/05/13 14:11:18;;;;;;;16.48;3.47;;;17.40;99.90;;;;;;5011071;28;20105;-77
2021/05/13 14:13:44;;;;;;;11.52;3.88;;;17.30;99.90;;;;;;5010911;28;20569;-73
2021/05/13 14:16:13;;;;;;;13.63;3.88;;;17.20;99.90;;;;;;5011235;28;20364;-74
2021/05/13 14:18:39;;;;;;;12.18;3.80;;;17.20;99.90;;;;;;5010977;28;20041;-77
2021/05/13 14:21:04;;;;;;;9.85;3.70;;;17.20;99.90;;;;;;5005668;28;20047;-74
2021/05/13 14:23:30;;;;;;;7.22;3.33;;;17.20;99.90;;;;;;5011437;28;20030;-75
2021/05/13 14:25:56;;;;;;;10.23;2.72;;;17.20;99.90;;;;;;5012286;28;20026;-74
2021/05/13 14:28:24;;;;;;;19.00;3.63;;;17.20;99.90;;;;;;5012030;28;20383;-75
2021/05/13 14:30:50;;;;;;;12.80;3.10;;;17.20;99.90;;;;;;5011968;28;20030;-74
2021/05/13 14:33:16;;;;;;;25.58;4.68;;;17.20;99.90;;;;;;5011779;28;20466;-74
2021/05/13 14:35:45;;;;;;;17.48;4.40;;;17.20;99.90;;;;;;5011397;28;20061;-79
2021/05/13 14:38:11;;;;;;;15.75;3.40;;;17.20;99.90;;;;;;5011069;28;20042;-78
2021/05/13 14:41:00;;;;;;;10.48;3.13;;;17.10;99.90;;;;;;5011217;28;20506;-78
2021/05/13 14:46:23;;;;;;;17.10;4.43;;;17.00;99.90;;;;;;4969070;28;20062;-78
2021/05/13 14:49:08;;;;;;;12.93;3.70;;;17.10;99.90;;;;;;5005421;28;20109;-79
2021/05/13 14:51:34;;;;;;;22.33;8.77;;;17.10;99.90;;;;;;5010288;28;20034;-79
2021/05/13 14:54:00;;;;;;;31.10;12.27;;;17.20;99.90;;;;;;5010817;28;20048;-79
2021/05/13 14:56:26;;;;;;;29.58;10.27;;;17.20;99.90;;;;;;5010411;28;20041;-76
2021/05/13 14:58:52;;;;;;;16.70;6.82;;;17.30;99.90;;;;;;5009087;28;20133;-79
2021/05/13 15:01:23;;;;;;;12.95;4.57;;;17.40;99.90;;;;;;5010255;28;20116;-79
2021/05/13 15:03:48;;;;;;;10.43;3.77;;;17.50;99.90;;;;;;5010323;28;20045;-77
2021/05/13 15:06:14;;;;;;;12.70;3.80;;;17.50;99.90;;;;;;5010492;28;20034;-72
2021/05/13 15:08:40;;;;;;;10.60;3.95;;;17.50;99.90;;;;;;5011948;28;20410;-77
2021/05/13 15:11:05;;;;;;;9.70;3.50;;;17.50;99.90;;;;;;5010874;28;20513;-74
2021/05/13 15:13:31;;;;;;;11.77;3.20;;;17.40;99.90;;;;;;4999035;28;20061;-75
2021/05/13 15:15:57;;;;;;;22.13;4.03;;;17.30;99.90;;;;;;5011349;28;20081;-77
2021/05/13 15:18:25;;;;;;;14.85;3.80;;;17.30;99.90;;;;;;5010637;28;20037;-76
2021/05/13 15:20:52;;;;;;;12.23;4.53;;;17.20;99.90;;;;;;5009955;28;20030;-77
2021/05/13 15:23:17;;;;;;;10.18;4.22;;;17.20;99.90;;;;;;5010123;28;20041;-78
2021/05/13 15:25:43;;;;;;;10.88;5.72;;;17.20;99.90;;;;;;5010379;28;20030;-74
2021/05/13 15:28:09;;;;;;;11.82;6.28;;;17.20;99.90;;;;;;5010876;28;20030;-74
2021/05/13 15:30:35;;;;;;;13.68;7.85;;;17.20;99.90;;;;;;5011123;28;20497;-73
2021/05/13 15:33:01;;;;;;;23.75;8.48;;;17.20;99.90;;;;;;5011606;28;20029;-75
2021/05/13 15:35:27;;;;;;;14.85;7.93;;;17.30;99.90;;;;;;5011881;28;20112;-75
2021/05/13 15:37:53;;;;;;;21.90;7.75;;;17.30;99.90;;;;;;5014223;28;20081;-76
2021/05/13 15:40:21;;;;;;;19.92;7.90;;;17.30;99.90;;;;;;5015846;28;20058;-76
2021/05/13 15:42:48;;;;;;;14.45;7.43;;;17.30;99.90;;;;;;5015796;28;20493;-74
2021/05/13 15:45:17;;;;;;;21.38;7.72;;;17.20;99.90;;;;;;5014946;28;20049;-74
2021/05/13 15:47:43;;;;;;;15.43;7.82;;;17.20;99.90;;;;;;5018011;28;20057;-77
2021/05/13 15:50:57;;;;;;;11.52;7.07;;;17.20;99.90;;;;;;5014580;28;20680;-77
2021/05/13 15:53:42;;;;;;;15.32;7.68;;;17.20;99.90;;;;;;5009017;28;20049;-74
2021/05/13 15:56:11;;;;;;;16.73;7.13;;;17.20;99.90;;;;;;4988032;28;20084;-73
2021/05/13 15:58:47;;;;;;;16.42;7.13;;;17.10;99.90;;;;;;5013713;28;20038;-75
2021/05/13 16:01:13;;;;;;;13.52;6.78;;;17.10;99.90;;;;;;5007073;28;20031;-77
2021/05/13 16:03:39;;;;;;;14.80;7.20;;;17.10;99.90;;;;;;5003141;28;20461;-74
2021/05/13 16:06:06;;;;;;;19.23;7.38;;;17.00;99.90;;;;;;5012783;28;20494;-74
2021/05/13 16:08:32;;;;;;;18.20;7.18;;;17.00;99.90;;;;;;5014453;28;20062;-77
2021/05/13 16:11:00;;;;;;;14.40;7.75;;;16.90;99.90;;;;;;5014007;28;20022;-73
2021/05/13 16:15:55;;;;;;;20.08;8.20;;;16.80;99.90;;;;;;5014727;28;20022;-73
2021/05/13 16:18:46;;;;;;;17.75;7.60;;;16.80;99.90;;;;;;5013113;28;20048;-76
2021/05/13 16:21:14;;;;;;;16.73;8.30;;;16.70;99.90;;;;;;5013408;28;20026;-78
2021/05/13 16:23:46;;;;;;;13.93;6.88;;;16.60;99.90;;;;;;5012935;28;20509;-76
2021/05/13 16:26:13;;;;;;;18.90;9.70;;;16.50;99.90;;;;;;5017604;28;20747;-77
2021/05/13 16:28:39;;;;;;;18.35;7.78;;;16.50;99.90;;;;;;5013546;28;20041;-78
2021/05/13 16:31:07;;;;;;;19.35;7.35;;;16.50;99.90;;;;;;5013703;28;20100;-79